Time;durP1;ratioP1;P1;durP2;ratioP2;P2;SDS_P1;SDS_P2;PMS_P1;PMS_P2;Temp;Humidity;BMP_temperature;BMP_pressure;BME280_temperature;BME280_humidity;BME280_pressure;Samples;Min_cycle;Max_cycle;Signal;HPM_P1;HPM_P2
2023/06/20 00:01:24;;;;;;;20.83;18.08;;;;;;;-145.07;100.00;61000.34;5067051;28;20060;-62
2023/06/20 00:04:49;;;;;;;21.77;19.20;;;;;;;-145.07;100.00;61000.34;5061314;28;20051;-62
2023/06/20 00:08:14;;;;;;;21.80;18.15;;;;;;;-145.07;100.00;61000.34;5070451;28;20057;-62
2023/06/20 00:11:39;;;;;;;23.65;19.50;;;;;;;-145.07;100.00;61000.34;5074262;28;20056;-63
2023/06/20 00:15:04;;;;;;;22.67;18.65;;;;;;;-145.07;100.00;61000.34;5062108;28;20054;-62
2023/06/20 00:18:29;;;;;;;23.85;18.65;;;;;;;-145.07;100.00;61000.34;5053166;28;20399;-62
2023/06/20 00:21:54;;;;;;;22.10;18.42;;;;;;;-145.07;100.00;61000.34;5072512;28;20475;-61
2023/06/20 00:25:19;;;;;;;20.40;17.38;;;;;;;-145.07;100.00;61000.34;5073664;28;20132;-61
2023/06/20 00:28:44;;;;;;;20.90;18.27;;;;;;;-145.07;100.00;61000.34;5071103;28;20066;-61
2023/06/20 00:32:09;;;;;;;25.73;19.13;;;;;;;-145.07;100.00;61000.34;5073169;28;20098;-61
2023/06/20 00:35:34;;;;;;;23.50;18.73;;;;;;;-145.07;100.00;61000.34;5070870;28;20060;-61
2023/06/20 00:38:59;;;;;;;20.30;17.85;;;;;;;-145.07;100.00;61000.34;5053581;28;20055;-61
2023/06/20 00:42:24;;;;;;;23.38;16.55;;;;;;;-145.07;100.00;61000.34;5094086;28;20058;-61
2023/06/20 00:45:50;;;;;;;23.77;18.77;;;;;;;-145.07;100.00;61000.34;5054446;28;20045;-61
2023/06/20 00:49:15;;;;;;;26.30;18.13;;;;;;;-145.07;100.00;61000.34;5073891;28;20095;-62
2023/06/20 00:52:41;;;;;;;20.20;18.02;;;;;;;-145.07;100.00;61000.34;5060565;28;20045;-62
2023/06/20 00:56:06;;;;;;;23.08;19.92;;;;;;;-145.07;100.00;61000.34;5061245;28;20361;-62
2023/06/20 00:59:31;;;;;;;23.90;19.30;;;;;;;-145.07;100.00;61000.34;5060103;28;20071;-62
2023/06/20 01:03:01;;;;;;;21.80;19.48;;;;;;;-145.07;100.00;61000.34;5073497;28;20131;-61
2023/06/20 01:06:42;;;;;;;22.95;19.50;;;;;;;-145.07;100.00;61000.34;5072901;28;20536;-61
2023/06/20 01:10:24;;;;;;;22.47;19.50;;;;;;;-145.07;100.00;61000.34;5072929;28;20052;-62
2023/06/20 01:14:06;;;;;;;25.52;20.25;;;;;;;-145.07;100.00;61000.34;5057348;28;20352;-61
2023/06/20 01:17:35;;;;;;;23.33;19.90;;;;;;;-145.07;100.00;61000.34;5067917;28;20334;-61
2023/06/20 01:21:08;;;;;;;29.40;21.23;;;;;;;-145.07;100.00;61000.34;5065623;28;20048;-61
2023/06/20 01:24:41;;;;;;;23.25;17.70;;;;;;;-145.07;100.00;61000.34;5093398;28;20044;-62
2023/06/20 01:28:18;;;;;;;27.55;20.55;;;;;;;-145.07;100.00;61000.34;5070553;28;20142;-62
2023/06/20 01:31:49;;;;;;;26.42;20.00;;;;;;;-145.07;100.00;61000.34;5070944;28;20052;-62
2023/06/20 01:35:21;;;;;;;24.77;19.13;;;;;;;-145.07;100.00;61000.34;5064304;28;20463;-61
2023/06/20 01:38:54;;;;;;;25.88;21.20;;;;;;;-145.07;100.00;61000.34;5056371;28;20064;-61
2023/06/20 01:42:23;;;;;;;27.00;19.38;;;;;;;-145.07;100.00;61000.34;5062992;28;20445;-61
2023/06/20 01:45:50;;;;;;;26.65;22.77;;;;;;;-145.07;100.00;61000.34;5057375;28;20139;-61
2023/06/20 01:49:17;;;;;;;24.75;21.55;;;;;;;-145.07;100.00;61000.34;5061763;28;20053;-61
2023/06/20 01:52:44;;;;;;;29.70;20.83;;;;;;;-145.07;100.00;61000.34;5060253;28;20051;-62
2023/06/20 01:56:10;;;;;;;27.48;21.73;;;;;;;-145.07;100.00;61000.34;5058468;28;20052;-62
2023/06/20 01:59:37;;;;;;;24.38;20.45;;;;;;;-145.07;100.00;61000.34;5052616;28;20140;-62
2023/06/20 02:03:03;;;;;;;23.55;21.00;;;;;;;-145.07;100.00;61000.34;5070589;28;20469;-61
2023/06/20 02:06:30;;;;;;;26.40;20.00;;;;;;;-145.07;100.00;61000.34;5064354;28;20123;-62
2023/06/20 02:09:57;;;;;;;26.98;21.85;;;;;;;-145.07;100.00;61000.34;5065052;28;20103;-61
2023/06/20 02:13:23;;;;;;;28.40;20.17;;;;;;;-145.07;100.00;61000.34;5060683;28;20052;-61
2023/06/20 02:16:52;;;;;;;27.90;19.60;;;;;;;-145.07;100.00;61000.34;5060543;28;20044;-61
2023/06/20 02:20:17;;;;;;;24.30;20.73;;;;;;;-145.07;100.00;61000.34;5063339;28;20056;-61
2023/06/20 02:23:46;;;;;;;30.08;21.13;;;;;;;-145.07;100.00;61000.34;5052233;28;20164;-61
2023/06/20 02:27:15;;;;;;;24.95;21.60;;;;;;;-145.07;100.00;61000.34;5071322;28;20052;-62
2023/06/20 02:30:42;;;;;;;27.30;21.63;;;;;;;-145.07;100.00;61000.34;5052412;28;20064;-61
2023/06/20 02:34:11;;;;;;;25.58;21.45;;;;;;;-145.07;100.00;61000.34;5069433;28;20132;-61
2023/06/20 02:37:38;;;;;;;31.25;21.83;;;;;;;-145.07;100.00;61000.34;5080949;28;20452;-61
2023/06/20 02:41:03;;;;;;;31.30;23.55;;;;;;;-145.07;100.00;61000.34;5086261;28;20059;-62
2023/06/20 02:44:28;;;;;;;26.88;23.58;;;;;;;-145.07;100.00;61000.34;5075715;28;20442;-61
2023/06/20 02:48:02;;;;;;;25.80;21.55;;;;;;;-145.07;100.00;61000.34;5084612;28;20057;-61
2023/06/20 02:51:36;;;;;;;27.00;22.35;;;;;;;-145.07;100.00;61000.34;5055338;28;20061;-61
2023/06/20 02:55:29;;;;;;;30.98;22.58;;;;;;;-145.07;100.00;61000.34;5054933;28;20140;-61
2023/06/20 02:59:00;;;;;;;25.70;21.92;;;;;;;-145.07;100.00;61000.34;5066408;28;20105;-61
2023/06/20 03:02:29;;;;;;;25.37;21.93;;;;;;;-145.07;100.00;61000.34;5073584;28;20110;-61
2023/06/20 03:05:58;;;;;;;28.33;23.33;;;;;;;-145.07;100.00;61000.34;5068776;28;20059;-61
2023/06/20 03:09:26;;;;;;;28.88;21.77;;;;;;;-145.07;100.00;61000.34;5061486;28;20052;-61
2023/06/20 03:12:51;;;;;;;27.83;23.48;;;;;;;-145.07;100.00;61000.34;5062259;28;20053;-61
2023/06/20 03:16:17;;;;;;;26.05;21.98;;;;;;;-145.07;100.00;61000.34;5074510;28;20135;-61
2023/06/20 03:19:42;;;;;;;25.33;22.60;;;;;;;-145.07;100.00;61000.34;5065243;28;20132;-61
2023/06/20 03:23:07;;;;;;;26.23;22.73;;;;;;;-145.07;100.00;61000.34;5074976;28;20059;-61
2023/06/20 03:26:33;;;;;;;27.27;22.35;;;;;;;-145.07;100.00;61000.34;5074427;28;20459;-61
2023/06/20 03:29:59;;;;;;;28.52;23.15;;;;;;;-145.07;100.00;61000.34;5064995;28;20081;-61
2023/06/20 03:33:25;;;;;;;27.42;22.90;;;;;;;-145.07;100.00;61000.34;5074376;28;20371;-61
2023/06/20 03:36:50;;;;;;;28.02;24.73;;;;;;;-145.07;100.00;61000.34;5073678;28;20448;-62
2023/06/20 03:40:15;;;;;;;29.45;24.48;;;;;;;-145.07;100.00;61000.34;5054120;28;20384;-62
2023/06/20 03:43:40;;;;;;;26.55;22.88;;;;;;;-145.07;100.00;61000.34;5037492;28;20060;-61
2023/06/20 03:47:05;;;;;;;29.70;23.38;;;;;;;-145.07;100.00;61000.34;5054268;28;20067;-61
2023/06/20 03:50:30;;;;;;;30.75;24.40;;;;;;;-145.07;100.00;61000.34;5056368;28;20049;-61
2023/06/20 03:53:55;;;;;;;25.38;22.65;;;;;;;-145.07;100.00;61000.34;5057148;28;20139;-62
2023/06/20 03:57:20;;;;;;;26.58;23.52;;;;;;;-145.07;100.00;61000.34;5060877;28;20048;-62
2023/06/20 04:00:46;;;;;;;31.60;24.77;;;;;;;-145.07;100.00;61000.34;5056268;28;20063;-62
2023/06/20 04:04:13;;;;;;;34.13;25.08;;;;;;;-145.07;100.00;61000.34;5076947;28;20052;-61
2023/06/20 04:07:42;;;;;;;28.50;25.40;;;;;;;-145.07;100.00;61000.34;5094710;28;20047;-61
2023/06/20 04:11:09;;;;;;;28.10;24.55;;;;;;;-145.07;100.00;61000.34;5053962;28;20048;-61
2023/06/20 04:14:33;;;;;;;29.27;24.27;;;;;;;-145.07;100.00;61000.34;5073078;28;20048;-61
2023/06/20 04:17:59;;;;;;;29.90;25.00;;;;;;;-145.07;100.00;61000.34;5082249;28;20710;-61
2023/06/20 04:21:24;;;;;;;30.75;24.45;;;;;;;-145.07;100.00;61000.34;5053379;28;20063;-61
2023/06/20 04:24:49;;;;;;;27.42;22.25;;;;;;;-145.07;100.00;61000.34;5059005;28;20044;-62
2023/06/20 04:28:17;;;;;;;29.98;25.38;;;;;;;-145.07;100.00;61000.34;5056409;28;20084;-61
2023/06/20 04:31:42;;;;;;;30.88;24.27;;;;;;;-145.07;100.00;61000.34;5073174;28;20337;-61
2023/06/20 04:35:10;;;;;;;31.35;22.83;;;;;;;-145.07;100.00;61000.34;5089821;28;21140;-62
2023/06/20 04:38:37;;;;;;;27.52;23.55;;;;;;;-145.07;100.00;61000.34;5085987;28;20055;-62
2023/06/20 04:42:02;;;;;;;30.40;24.67;;;;;;;-145.07;100.00;61000.34;5092390;28;20071;-61
2023/06/20 04:45:27;;;;;;;32.85;25.13;;;;;;;-145.07;100.00;61000.34;5047955;28;20052;-62
2023/06/20 04:48:56;;;;;;;35.53;27.15;;;;;;;-145.07;100.00;61000.34;5079901;28;20151;-61
2023/06/20 04:52:21;;;;;;;37.65;28.90;;;;;;;-145.07;100.00;61000.34;5083874;28;20045;-61
2023/06/20 04:55:46;;;;;;;35.45;27.63;;;;;;;-145.07;100.00;61000.34;5083585;28;20063;-62
2023/06/20 04:59:11;;;;;;;36.05;26.73;;;;;;;-145.07;100.00;61000.34;5093194;28;20182;-61
2023/06/20 05:02:36;;;;;;;31.65;27.15;;;;;;;-145.07;100.00;61000.34;5092122;28;20044;-61
2023/06/20 05:06:01;;;;;;;34.08;26.67;;;;;;;-145.07;100.00;61000.34;5092490;28;20052;-62
2023/06/20 05:09:27;;;;;;;33.67;26.17;;;;;;;-145.07;100.00;61000.34;5068528;28;20151;-61
2023/06/20 05:12:52;;;;;;;30.85;24.27;;;;;;;-145.07;100.00;61000.34;5085700;28;20067;-61
2023/06/20 05:16:17;;;;;;;27.60;24.60;;;;;;;-145.07;100.00;61000.34;5084006;28;20525;-61
2023/06/20 05:19:42;;;;;;;30.80;25.90;;;;;;;-145.07;100.00;61000.34;5084986;28;20062;-61
2023/06/20 05:23:07;;;;;;;30.13;25.30;;;;;;;-145.07;100.00;61000.34;5088824;28;20075;-61
2023/06/20 05:26:32;;;;;;;31.98;25.00;;;;;;;-145.07;100.00;61000.34;5052340;28;20053;-61
2023/06/20 05:29:57;;;;;;;36.38;25.77;;;;;;;-145.07;100.00;61000.34;5083456;28;20166;-61
2023/06/20 05:33:22;;;;;;;29.20;24.90;;;;;;;-145.07;100.00;61000.34;5066968;28;20464;-61
2023/06/20 05:41:32;;;;;;;33.88;25.75;;;;;;;-145.07;100.00;61000.34;5084656;28;20089;-61
2023/06/20 05:44:58;;;;;;;34.67;25.13;;;;;;;-145.07;100.00;61000.34;5081872;28;20452;-61
2023/06/20 05:48:24;;;;;;;32.97;24.45;;;;;;;-145.07;100.00;61000.34;5087734;28;20123;-61
2023/06/20 05:51:49;;;;;;;32.65;25.42;;;;;;;-145.07;100.00;61000.34;5092531;28;20124;-61
2023/06/20 05:55:14;;;;;;;28.55;24.50;;;;;;;-145.07;100.00;61000.34;5058932;28;20044;-61
2023/06/20 05:58:41;;;;;;;29.77;25.08;;;;;;;-145.07;100.00;61000.34;5086663;28;20143;-61
2023/06/20 06:02:06;;;;;;;38.08;25.98;;;;;;;-145.07;100.00;61000.34;5071168;28;20127;-61
2023/06/20 06:05:31;;;;;;;28.77;23.63;;;;;;;-145.07;100.00;61000.34;5075851;28;20440;-61
2023/06/20 06:08:56;;;;;;;32.92;25.05;;;;;;;-145.07;100.00;61000.34;5076252;28;20504;-61
2023/06/20 06:12:21;;;;;;;29.40;24.45;;;;;;;-145.07;100.00;61000.34;5088147;28;20054;-61
2023/06/20 06:15:47;;;;;;;31.90;24.67;;;;;;;-145.07;100.00;61000.34;5065336;28;20048;-61
2023/06/20 06:19:24;;;;;;;30.50;24.63;;;;;;;-145.07;100.00;61000.34;5090325;28;20062;-61
2023/06/20 06:22:49;;;;;;;27.70;24.30;;;;;;;-145.07;100.00;61000.34;5073196;28;20136;-61
2023/06/20 06:26:14;;;;;;;28.75;24.15;;;;;;;-145.07;100.00;61000.34;5063109;28;20136;-61
2023/06/20 06:29:39;;;;;;;29.95;25.40;;;;;;;-145.07;100.00;61000.34;5075078;28;20151;-61
2023/06/20 06:33:07;;;;;;;31.40;24.75;;;;;;;-145.07;100.00;61000.34;5072779;28;20087;-61
2023/06/20 06:36:33;;;;;;;28.73;23.65;;;;;;;-145.07;100.00;61000.34;5062574;28;20542;-61
2023/06/20 06:39:59;;;;;;;34.95;25.48;;;;;;;-145.07;100.00;61000.34;5053006;28;20055;-61
2023/06/20 06:43:25;;;;;;;30.15;23.88;;;;;;;-145.07;100.00;61000.34;5068354;28;20080;-61
2023/06/20 06:46:50;;;;;;;29.80;23.90;;;;;;;-145.07;100.00;61000.34;5053961;28;20620;-61
2023/06/20 06:50:17;;;;;;;36.80;24.05;;;;;;;-145.07;100.00;61000.34;5054188;28;20056;-61
2023/06/20 06:53:42;;;;;;;30.83;24.33;;;;;;;-145.07;100.00;61000.34;5054337;28;20049;-61
2023/06/20 06:57:07;;;;;;;30.33;25.02;;;;;;;-145.07;100.00;61000.34;5054572;28;20056;-61
2023/06/20 07:00:32;;;;;;;29.35;23.80;;;;;;;-145.07;100.00;61000.34;5066188;28;20106;-61
2023/06/20 07:03:57;;;;;;;31.67;25.20;;;;;;;-145.07;100.00;61000.34;5075440;28;20062;-61
2023/06/20 07:07:22;;;;;;;34.05;27.13;;;;;;;-145.07;100.00;61000.34;5074962;28;20048;-61
2023/06/20 07:10:50;;;;;;;31.27;25.30;;;;;;;-145.07;100.00;61000.34;5055966;28;20589;-61
2023/06/20 07:14:15;;;;;;;33.70;25.70;;;;;;;-145.07;100.00;61000.34;5054688;28;20479;-61
2023/06/20 07:17:40;;;;;;;27.38;23.42;;;;;;;-145.07;100.00;61000.34;5054462;28;20156;-61
2023/06/20 07:21:06;;;;;;;34.75;26.17;;;;;;;-145.07;100.00;61000.34;5054694;28;20091;-61
2023/06/20 07:24:31;;;;;;;30.02;24.05;;;;;;;-145.07;100.00;61000.34;5054545;28;20137;-62
2023/06/20 07:27:57;;;;;;;27.77;24.30;;;;;;;-145.07;100.00;61000.34;5053414;28;20615;-61
2023/06/20 07:31:22;;;;;;;35.78;26.15;;;;;;;-145.07;100.00;61000.34;5054688;28;20080;-61
2023/06/20 07:34:48;;;;;;;29.25;24.63;;;;;;;-145.07;100.00;61000.34;5054930;28;20167;-61
2023/06/20 07:38:13;;;;;;;29.38;25.45;;;;;;;-145.07;100.00;61000.34;5054489;28;20049;-61
2023/06/20 07:41:41;;;;;;;27.88;24.88;;;;;;;-145.07;100.00;61000.34;5054391;28;20147;-61
2023/06/20 07:45:06;;;;;;;31.25;25.88;;;;;;;-145.07;100.00;61000.34;5054260;28;20093;-61
2023/06/20 07:48:31;;;;;;;31.95;25.45;;;;;;;-145.07;100.00;61000.34;5054363;28;20045;-61
2023/06/20 07:51:56;;;;;;;28.23;24.92;;;;;;;-145.07;100.00;61000.34;5054143;28;20049;-61
2023/06/20 07:55:21;;;;;;;30.05;25.50;;;;;;;-145.07;100.00;61000.34;5053694;28;20151;-61
2023/06/20 07:58:54;;;;;;;34.13;25.77;;;;;;;-145.07;100.00;61000.34;5053797;28;20067;-61
2023/06/20 08:02:20;;;;;;;30.67;23.95;;;;;;;-145.07;100.00;61000.34;5073814;28;20071;-61
2023/06/20 08:05:45;;;;;;;31.23;25.10;;;;;;;-145.07;100.00;61000.34;5056379;28;20777;-60
2023/06/20 08:09:10;;;;;;;30.35;23.77;;;;;;;-145.07;100.00;61000.34;5061419;28;20128;-61
2023/06/20 08:12:38;;;;;;;30.73;25.25;;;;;;;-145.07;100.00;61000.34;5053964;28;20063;-61
2023/06/20 08:16:03;;;;;;;41.28;25.85;;;;;;;-145.07;100.00;61000.34;5053546;28;20075;-61
2023/06/20 08:19:29;;;;;;;30.92;26.60;;;;;;;-145.07;100.00;61000.34;5053632;28;20140;-61
2023/06/20 08:22:54;;;;;;;28.10;24.70;;;;;;;-145.07;100.00;61000.34;5053543;28;20139;-61
2023/06/20 08:26:19;;;;;;;29.48;25.35;;;;;;;-145.07;100.00;61000.34;5052868;28;20139;-61
2023/06/20 08:29:44;;;;;;;27.98;24.48;;;;;;;-145.07;100.00;61000.34;5053483;28;20083;-61
2023/06/20 08:33:09;;;;;;;27.38;23.17;;;;;;;-145.07;100.00;61000.34;5053254;28;20094;-61
2023/06/20 08:36:34;;;;;;;27.80;22.67;;;;;;;-145.07;100.00;61000.34;5052447;28;20473;-61
2023/06/20 08:39:59;;;;;;;28.60;23.40;;;;;;;-145.07;100.00;61000.34;5052652;28;20099;-61
2023/06/20 08:43:29;;;;;;;27.45;22.52;;;;;;;-145.07;100.00;61000.34;5053626;28;20148;-61
2023/06/20 08:46:57;;;;;;;30.13;23.55;;;;;;;-145.07;100.00;61000.34;5054086;28;20057;-61
2023/06/20 08:50:22;;;;;;;33.85;25.85;;;;;;;-145.07;100.00;61000.34;5054098;28;20448;-60
2023/06/20 08:53:50;;;;;;;36.15;26.35;;;;;;;-145.07;100.00;61000.34;5054070;28;20106;-60
2023/06/20 08:57:18;;;;;;;33.33;28.35;;;;;;;-145.07;100.00;61000.34;5053220;28;20076;-59
2023/06/20 09:00:45;;;;;;;38.05;29.08;;;;;;;-145.07;100.00;61000.34;5065871;28;20449;-59
2023/06/20 09:04:11;;;;;;;45.00;31.10;;;;;;;-145.07;100.00;61000.34;5072707;28;20060;-60
2023/06/20 09:07:37;;;;;;;45.08;32.83;;;;;;;-145.07;100.00;61000.34;5052669;28;20063;-62
2023/06/20 09:11:04;;;;;;;37.50;31.42;;;;;;;-145.07;100.00;61000.34;5073225;28;20090;-59
2023/06/20 09:14:29;;;;;;;39.83;32.30;;;;;;;-145.07;100.00;61000.34;5074255;28;20126;-59
2023/06/20 09:17:59;;;;;;;40.30;32.00;;;;;;;-145.07;100.00;61000.34;5057690;28;20053;-59
2023/06/20 09:21:26;;;;;;;;;;;;;;;-145.07;100.00;61000.34;5060948;28;20434;-59
2023/06/20 09:25:03;;;;;;;37.67;32.22;;;;;;;-145.07;100.00;61000.34;5053653;28;19975;-58
2023/06/20 09:28:32;;;;;;;43.22;33.22;;;;;;;-145.07;100.00;61000.34;5053258;28;20049;-59
2023/06/20 09:31:57;;;;;;;48.95;36.47;;;;;;;-145.07;100.00;61000.34;5052989;28;20110;-58
2023/06/20 09:35:02;;;;;;;60.08;42.03;;;;;;;29.71;nan;101082.91;5052771;28;20139;-59
2023/06/20 09:37:51;;;;;;;78.38;49.55;;;;;;;37.79;nan;101215.06;5057901;28;20068;-58
2023/06/20 09:40:19;;;;;;;71.95;48.92;;;;;;;35.38;nan;101197.22;5059065;28;20079;-58
2023/06/20 09:42:47;;;;;;;71.57;45.65;;;;;;;35.37;nan;101192.78;5068722;28;20086;-59
2023/06/20 09:45:16;;;;;;;64.68;46.15;;;;;;;36.19;nan;101212.72;5055539;28;20589;-59
2023/06/20 09:47:44;;;;;;;63.90;46.08;;;;;;;35.66;nan;101202.22;5053262;28;20364;-58
2023/06/20 09:50:16;;;;;;;68.05;45.50;;;;;;;36.63;nan;101200.75;5052546;28;20345;-57
2023/06/20 09:54:04;;;;;;;63.33;45.13;;;;;;;-145.07;100.00;61000.34;5052684;28;20075;-57
2023/06/20 09:58:04;;;;;;;63.50;43.67;;;;;;;-145.07;100.00;61000.34;5052798;28;20053;-57
2023/06/20 10:01:31;;;;;;;56.83;40.50;;;;;;;-145.07;100.00;61000.34;5047276;28;20108;-58
2023/06/20 10:04:58;;;;;;;60.10;44.45;;;;;;;-145.07;100.00;61000.34;5053937;28;20086;-59
2023/06/20 10:08:24;;;;;;;65.05;42.83;;;;;;;-145.07;100.00;61000.34;5057042;28;20041;-58
2023/06/20 10:11:49;;;;;;;60.25;41.72;;;;;;;-145.07;100.00;61000.34;5053386;28;20078;-58
2023/06/20 10:15:15;;;;;;;56.42;41.17;;;;;;;-145.07;100.00;61000.34;5052070;28;20106;-57
2023/06/20 10:18:41;;;;;;;61.53;40.28;;;;;;;-145.07;100.00;61000.34;5068907;28;20052;-57
2023/06/20 10:22:10;;;;;;;57.75;43.25;;;;;;;-145.07;100.00;61000.34;5071868;28;20444;-57
2023/06/20 10:26:05;;;;;;;62.17;44.30;;;;;;;-145.07;100.00;61000.34;5071476;28;20049;-58
2023/06/20 10:29:38;;;;;;;62.90;45.60;;;;;;;-145.07;100.00;61000.34;5073031;28;20056;-58
2023/06/20 10:33:10;;;;;;;68.22;46.42;;;;;;;-145.07;100.00;61000.34;5072312;28;20053;-58
2023/06/20 10:37:08;;;;;;;73.35;47.72;;;;;;;-145.07;100.00;61000.34;5071521;28;20057;-58
2023/06/20 10:40:34;;;;;;;65.18;46.70;;;;;;;-145.07;100.00;61000.34;5071853;28;20052;-58
2023/06/20 10:44:05;;;;;;;59.17;47.30;;;;;;;-145.07;100.00;61000.34;5071817;28;20084;-58
2023/06/20 10:47:40;;;;;;;62.25;44.08;;;;;;;-145.07;100.00;61000.34;5071383;28;20068;-57
2023/06/20 10:51:05;;;;;;;60.00;40.55;;;;;;;-145.07;100.00;61000.34;5071935;28;20062;-57
2023/06/20 10:54:34;;;;;;;65.30;45.25;;;;;;;-145.07;100.00;61000.34;5071849;28;20054;-58
2023/06/20 10:57:59;;;;;;;60.95;44.58;;;;;;;-145.07;100.00;61000.34;5071652;28;20052;-57
2023/06/20 11:01:27;;;;;;;73.28;46.95;;;;;;;-145.07;100.00;61000.34;5071399;28;20055;-57
2023/06/20 11:04:53;;;;;;;61.08;43.20;;;;;;;-145.07;100.00;61000.34;5075363;28;20094;-58
2023/06/20 11:08:22;;;;;;;60.08;42.33;;;;;;;-145.07;100.00;61000.34;5074976;28;20678;-58
2023/06/20 11:11:47;;;;;;;64.57;43.72;;;;;;;-145.07;100.00;61000.34;5075075;28;20436;-58
2023/06/20 11:15:20;;;;;;;56.53;41.67;;;;;;;-145.07;100.00;61000.34;5074922;28;20064;-58
2023/06/20 11:18:46;;;;;;;57.10;42.72;;;;;;;-145.07;100.00;61000.34;5074945;28;20512;-58
2023/06/20 11:22:13;;;;;;;53.78;39.38;;;;;;;-145.07;100.00;61000.34;5074884;28;20063;-58
2023/06/20 11:25:40;;;;;;;55.17;40.90;;;;;;;-145.07;100.00;61000.34;5074667;28;20349;-58
2023/06/20 11:29:09;;;;;;;51.00;36.78;;;;;;;-145.07;100.00;61000.34;5074702;28;20118;-58
2023/06/20 11:32:38;;;;;;;50.90;38.58;;;;;;;-145.07;100.00;61000.34;5074763;28;20086;-59
2023/06/20 11:36:04;;;;;;;40.42;33.95;;;;;;;-145.07;100.00;61000.34;5073846;28;20088;-58
2023/06/20 11:39:29;;;;;;;38.90;30.42;;;;;;;-145.07;100.00;61000.34;5074304;28;20420;-58
2023/06/20 11:42:54;;;;;;;36.00;28.50;;;;;;;-145.07;100.00;61000.34;5073891;28;20598;-58
2023/06/20 11:46:22;;;;;;;33.45;27.30;;;;;;;-145.07;100.00;61000.34;5073550;28;20405;-57
2023/06/20 11:49:48;;;;;;;31.00;27.05;;;;;;;-145.07;100.00;61000.34;5074012;28;20060;-58
2023/06/20 11:53:17;;;;;;;31.35;27.88;;;;;;;-145.07;100.00;61000.34;5054066;28;20063;-59
2023/06/20 11:56:54;;;;;;;35.08;26.15;;;;;;;-145.07;100.00;61000.34;5063791;28;20088;-59
2023/06/20 12:00:24;;;;;;;29.13;25.02;;;;;;;-145.07;100.00;61000.34;5063284;28;20044;-58
2023/06/20 12:04:03;;;;;;;27.77;23.98;;;;;;;-145.07;100.00;61000.34;5062307;28;20044;-58
2023/06/20 12:07:48;;;;;;;33.00;25.73;;;;;;;-145.07;100.00;61000.34;5065014;28;20055;-58
2023/06/20 12:11:14;;;;;;;29.13;23.67;;;;;;;-145.07;100.00;61000.34;5061706;28;20107;-59
2023/06/20 12:14:16;;;;;;;27.13;23.48;;;;;;;36.63;nan;101200.75;5070526;28;20133;-58
2023/06/20 12:16:43;;;;;;;27.70;21.88;;;;;;;46.35;nan;101088.81;5063460;28;20092;-58
2023/06/20 12:20:08;;;;;;;24.63;20.05;;;;;;;-145.07;100.00;61000.34;5077552;28;20056;-59
2023/06/20 12:23:52;;;;;;;29.88;21.30;;;;;;;-145.07;100.00;61000.34;5063491;28;20052;-58
2023/06/20 12:27:17;;;;;;;22.67;20.05;;;;;;;-145.07;100.00;61000.34;5053274;28;20053;-58
2023/06/20 12:30:42;;;;;;;22.20;18.20;;;;;;;-145.07;100.00;61000.34;5052084;28;20124;-61
2023/06/20 12:34:07;;;;;;;20.52;18.27;;;;;;;-145.07;100.00;61000.34;5053416;28;20048;-60
2023/06/20 12:37:33;;;;;;;25.08;18.73;;;;;;;-145.07;100.00;61000.34;5055694;28;20051;-60
2023/06/20 12:40:58;;;;;;;27.73;22.48;;;;;;;-145.07;100.00;61000.34;5053496;28;20152;-60
2023/06/20 12:44:23;;;;;;;26.73;20.15;;;;;;;-145.07;100.00;61000.34;5052707;28;20111;-60
2023/06/20 12:47:48;;;;;;;22.70;20.27;;;;;;;-145.07;100.00;61000.34;5072720;28;20053;-60
2023/06/20 12:51:14;;;;;;;22.73;18.55;;;;;;;-145.07;100.00;61000.34;5072559;28;20044;-60
2023/06/20 12:54:39;;;;;;;20.23;18.13;;;;;;;-145.07;100.00;61000.34;5072607;28;20507;-60
2023/06/20 12:58:08;;;;;;;27.52;18.77;;;;;;;-145.07;100.00;61000.34;5071962;28;20048;-60
2023/06/20 13:01:34;;;;;;;22.63;17.20;;;;;;;-145.07;100.00;61000.34;5070598;28;20464;-59
2023/06/20 13:04:59;;;;;;;23.33;20.83;;;;;;;-145.07;100.00;61000.34;5072193;28;20044;-60
2023/06/20 13:08:24;;;;;;;24.65;21.80;;;;;;;-145.07;100.00;61000.34;5066017;28;20123;-60
2023/06/20 13:11:49;;;;;;;25.20;20.88;;;;;;;-145.07;100.00;61000.34;5052265;28;20049;-59
2023/06/20 13:15:19;;;;;;;23.60;20.08;;;;;;;-145.07;100.00;61000.34;5070964;28;20415;-59
2023/06/20 13:18:44;;;;;;;22.50;19.02;;;;;;;-145.07;100.00;61000.34;5060658;28;20118;-60
2023/06/20 13:22:09;;;;;;;22.38;20.08;;;;;;;-145.07;100.00;61000.34;5066074;28;20045;-59
2023/06/20 13:25:34;;;;;;;21.58;19.02;;;;;;;-145.07;100.00;61000.34;5063749;28;20070;-63
2023/06/20 13:33:20;;;;;;;20.83;18.13;;;;;;;45.84;21.04;101068.03;5053660;27;20261;-59
2023/06/20 13:35:46;;;;;;;28.95;20.42;;;;;;;44.95;21.11;101071.25;5040701;28;20045;-60
2023/06/20 13:38:13;;;;;;;21.33;19.13;;;;;;;45.36;21.94;101068.91;5045437;28;20055;-58
2023/06/20 13:40:40;;;;;;;22.90;18.67;;;;;;;45.69;21.52;101071.81;5048338;28;20469;-59
2023/06/20 13:43:06;;;;;;;19.33;17.13;;;;;;;45.66;21.58;101071.59;5049434;28;20106;-60
2023/06/20 13:45:34;;;;;;;25.73;19.63;;;;;;;43.94;22.87;101062.22;5048442;28;20076;-60
2023/06/20 13:48:01;;;;;;;24.52;18.80;;;;;;;45.91;20.53;101062.09;5048455;28;20060;-60
2023/06/20 13:50:27;;;;;;;24.00;20.67;;;;;;;45.77;20.30;101067.56;5048544;28;20049;-62
2023/06/20 13:52:54;;;;;;;22.45;19.73;;;;;;;44.27;22.85;101065.41;5048477;28;20049;-60
2023/06/20 13:55:21;;;;;;;21.55;18.67;;;;;;;46.56;20.15;101049.38;5048389;28;20067;-59
2023/06/20 13:57:48;;;;;;;19.92;17.83;;;;;;;48.43;18.15;101060.09;5048915;28;20369;-59
2023/06/20 14:00:14;;;;;;;27.35;19.15;;;;;;;46.41;19.85;101054.06;5048185;28;20756;-59
2023/06/20 14:02:42;;;;;;;21.17;18.85;;;;;;;47.84;18.51;101055.28;5029584;28;20076;-58
2023/06/20 14:05:13;;;;;;;20.85;18.42;;;;;;;48.79;18.12;101045.16;5027106;28;20140;-59
2023/06/20 14:07:42;;;;;;;20.33;18.20;;;;;;;46.47;20.41;101036.06;5028128;28;20049;-59
2023/06/20 14:10:09;;;;;;;20.52;18.33;;;;;;;46.67;20.55;101036.88;5027888;28;20058;-59
2023/06/20 14:12:36;;;;;;;22.35;16.48;;;;;;;46.99;19.86;101035.22;5028070;28;20069;-59
2023/06/20 14:15:05;;;;;;;17.95;14.68;;;;;;;44.81;21.61;101037.66;5027896;28;20422;-59
2023/06/20 14:17:32;;;;;;;18.92;15.30;;;;;;;47.08;19.07;101027.72;5028563;28;20049;-59
2023/06/20 14:19:59;;;;;;;18.13;14.77;;;;;;;48.79;17.59;101031.13;5028731;28;20500;-59
2023/06/20 14:22:26;;;;;;;16.45;14.75;;;;;;;48.64;18.33;101027.56;5028747;28;20051;-59
2023/06/20 14:24:52;;;;;;;14.80;13.25;;;;;;;51.49;15.45;101013.28;5028680;28;20102;-59
2023/06/20 14:27:19;;;;;;;13.57;12.27;;;;;;;51.40;15.50;101018.16;5041952;28;20861;-59
2023/06/20 14:29:46;;;;;;;16.83;13.05;;;;;;;50.10;15.88;101001.38;5036725;28;20053;-58
2023/06/20 14:32:13;;;;;;;14.48;12.10;;;;;;;50.82;15.64;101007.34;5032661;28;20096;-58
2023/06/20 14:34:39;;;;;;;13.85;12.45;;;;;;;52.56;14.38;101003.56;5041861;28;20060;-59
2023/06/20 14:37:06;;;;;;;15.20;12.55;;;;;;;50.38;16.04;101009.44;5045194;28;20114;-59
2023/06/20 14:39:33;;;;;;;18.10;13.57;;;;;;;52.18;14.78;100999.00;5042201;28;20052;-58
2023/06/20 14:41:59;;;;;;;14.00;12.63;;;;;;;51.31;15.48;100995.69;5028369;28;20132;-59
2023/06/20 14:44:26;;;;;;;15.73;13.85;;;;;;;51.29;15.04;100994.38;5020316;28;20053;-59
2023/06/20 14:46:53;;;;;;;13.95;12.57;;;;;;;51.39;14.84;101002.44;5031284;28;20072;-60
2023/06/20 14:49:20;;;;;;;25.77;21.30;;;;;;;50.57;16.01;101005.44;5034727;28;20115;-60
2023/06/20 14:51:50;;;;;;;16.10;12.85;;;;;;;49.48;15.65;100993.28;5029204;28;20037;-59
2023/06/20 14:54:16;;;;;;;15.48;12.85;;;;;;;50.12;15.58;100999.03;5033951;28;20046;-59